Time;durP1;ratioP1;P1;durP2;ratioP2;P2;SDS_P1;SDS_P2;PMS_P1;PMS_P2;Temp;Humidity;BMP_temperature;BMP_pressure;BME280_temperature;BME280_humidity;BME280_pressure;Samples;Min_cycle;Max_cycle;Signal;HPM_P1;HPM_P2
2021/01/06 00:01:11;;;;;;;23.08;7.65;;;6.90;85.00;;;;;;5015147;28;20125;-54
2021/01/06 00:03:36;;;;;;;27.60;9.50;;;6.90;85.00;;;;;;5012353;28;20034;-54
2021/01/06 00:06:08;;;;;;;27.88;9.40;;;6.90;84.90;;;;;;5012249;28;20429;-54
2021/01/06 00:08:35;;;;;;;25.42;9.07;;;6.90;84.90;;;;;;5012726;28;20026;-54
2021/01/06 00:11:01;;;;;;;24.58;8.80;;;6.80;84.90;;;;;;5029569;28;20068;-54
2021/01/06 00:13:27;;;;;;;28.23;10.23;;;6.80;84.90;;;;;;5012405;28;20029;-54
2021/01/06 00:15:53;;;;;;;27.80;9.43;;;6.90;84.90;;;;;;5014042;28;20030;-54
2021/01/06 00:18:19;;;;;;;18.27;7.32;;;6.80;84.90;;;;;;5020372;28;20061;-54
2021/01/06 00:20:45;;;;;;;23.90;9.38;;;6.80;84.90;;;;;;5020518;28;20273;-54
2021/01/06 00:23:11;;;;;;;20.20;6.93;;;6.80;84.90;;;;;;5025232;28;20522;-54
2021/01/06 00:25:41;;;;;;;28.98;9.32;;;6.80;84.90;;;;;;5017000;28;20458;-54
2021/01/06 00:28:13;;;;;;;20.70;8.98;;;6.80;84.90;;;;;;5021528;28;20033;-54
2021/01/06 00:30:42;;;;;;;29.27;8.88;;;6.80;84.90;;;;;;5017748;28;20036;-54
2021/01/06 00:33:11;;;;;;;30.88;10.82;;;6.80;84.90;;;;;;5017944;28;20041;-54
2021/01/06 00:35:37;;;;;;;31.20;11.02;;;6.80;85.60;;;;;;5016030;28;20026;-54
2021/01/06 00:38:04;;;;;;;21.40;9.27;;;6.80;84.90;;;;;;5016701;28;20100;-54
2021/01/06 00:40:32;;;;;;;31.45;10.98;;;6.80;84.90;;;;;;5017495;28;20113;-54
2021/01/06 00:43:01;;;;;;;22.92;9.80;;;6.80;84.90;;;;;;5015443;28;20029;-54
2021/01/06 00:45:27;;;;;;;25.95;9.32;;;6.80;84.90;;;;;;5015872;28;20026;-54
2021/01/06 00:47:53;;;;;;;31.23;9.00;;;6.80;84.90;;;;;;5026871;28;20064;-54
2021/01/06 00:50:20;;;;;;;21.55;8.70;;;6.80;84.90;;;;;;5016588;28;20062;-54
2021/01/06 00:52:46;;;;;;;22.27;9.15;;;6.80;84.90;;;;;;5014865;28;20030;-54
2021/01/06 00:55:12;;;;;;;23.05;9.57;;;6.80;84.90;;;;;;5015756;28;20028;-54
2021/01/06 00:57:39;;;;;;;29.90;9.98;;;6.80;84.90;;;;;;5019313;28;20080;-54
2021/01/06 01:00:12;;;;;;;25.42;10.38;;;6.80;84.90;;;;;;5030072;28;20026;-54
2021/01/06 01:02:37;;;;;;;22.60;8.07;;;6.80;84.90;;;;;;5015135;28;20030;-54
2021/01/06 01:05:03;;;;;;;20.63;7.07;;;6.80;84.90;;;;;;5016208;28;20080;-54
2021/01/06 01:07:29;;;;;;;30.00;8.82;;;6.80;85.00;;;;;;5017210;28;20033;-54
2021/01/06 01:09:55;;;;;;;25.48;9.43;;;6.80;84.90;;;;;;5032037;28;20034;-54
2021/01/06 01:12:22;;;;;;;20.55;8.40;;;6.80;84.90;;;;;;5016040;28;20026;-54
2021/01/06 01:14:49;;;;;;;31.45;8.63;;;6.80;85.00;;;;;;5016099;28;20029;-54
2021/01/06 01:17:15;;;;;;;23.63;9.15;;;6.80;85.00;;;;;;5015689;28;20403;-54
2021/01/06 01:19:41;;;;;;;28.83;10.15;;;6.80;85.00;;;;;;5015678;28;20455;-54
2021/01/06 01:22:07;;;;;;;24.65;9.38;;;6.80;85.00;;;;;;5015418;28;20055;-54
2021/01/06 01:24:33;;;;;;;26.77;9.15;;;6.80;85.00;;;;;;5025152;28;20033;-54
2021/01/06 01:26:58;;;;;;;27.90;8.98;;;6.90;85.10;;;;;;5014931;28;20022;-54
2021/01/06 01:29:24;;;;;;;27.30;9.27;;;6.90;85.00;;;;;;5015285;28;20025;-54
2021/01/06 01:31:49;;;;;;;22.05;8.98;;;6.80;85.00;;;;;;5017139;28;20020;-54
2021/01/06 01:34:15;;;;;;;25.73;9.23;;;6.90;85.10;;;;;;5018457;28;20077;-54
2021/01/06 01:36:48;;;;;;;30.48;9.70;;;6.80;85.00;;;;;;5015090;28;20135;-54
2021/01/06 01:39:14;;;;;;;24.08;8.30;;;6.80;85.00;;;;;;5017668;28;20042;-54
2021/01/06 01:41:40;;;;;;;24.00;9.05;;;6.90;85.10;;;;;;5013759;28;20029;-54
2021/01/06 01:44:06;;;;;;;22.63;8.05;;;6.80;85.00;;;;;;5014760;28;20399;-54
2021/01/06 01:47:00;;;;;;;27.42;9.35;;;6.90;85.10;;;;;;5015558;28;20105;-54
2021/01/06 01:49:38;;;;;;;24.98;9.15;;;6.80;85.00;;;;;;5020854;28;20518;-54
2021/01/06 01:52:20;;;;;;;26.77;9.50;;;6.80;85.00;;;;;;5016531;28;20041;-54
2021/01/06 01:54:45;;;;;;;31.13;8.57;;;6.90;85.10;;;;;;5026449;28;20474;-54
2021/01/06 01:57:16;;;;;;;25.85;9.95;;;6.90;85.00;;;;;;5014742;28;20107;-54
2021/01/06 01:59:46;;;;;;;29.77;9.63;;;6.80;85.80;;;;;;5023258;28;20029;-54
2021/01/06 02:02:40;;;;;;;23.30;9.80;;;6.90;85.00;;;;;;5035859;28;20028;-54
2021/01/06 02:05:10;;;;;;;28.52;10.40;;;6.90;85.10;;;;;;5021471;28;20366;-54
2021/01/06 02:07:47;;;;;;;23.77;8.40;;;6.80;85.00;;;;;;5026942;28;20112;-54
2021/01/06 02:10:32;;;;;;;23.10;9.07;;;6.90;85.10;;;;;;5030915;28;20120;-54
2021/01/06 02:13:08;;;;;;;21.67;8.38;;;6.90;85.10;;;;;;5019177;28;20049;-54
2021/01/06 02:15:47;;;;;;;24.40;8.52;;;6.80;85.00;;;;;;5014435;28;20022;-54
2021/01/06 02:18:14;;;;;;;27.73;9.70;;;6.90;85.10;;;;;;5015601;28;20036;-54
2021/01/06 02:20:40;;;;;;;20.08;6.80;;;6.90;85.10;;;;;;5014263;28;20060;-54
2021/01/06 02:23:06;;;;;;;27.15;8.68;;;6.90;85.10;;;;;;5013890;28;20337;-54
2021/01/06 02:25:32;;;;;;;26.10;8.10;;;6.90;85.10;;;;;;5022743;28;20029;-54
2021/01/06 02:28:00;;;;;;;28.13;8.50;;;6.90;85.10;;;;;;5026698;28;20033;-54
2021/01/06 02:30:27;;;;;;;21.00;7.72;;;6.90;85.10;;;;;;5028429;28;20116;-54
2021/01/06 02:32:53;;;;;;;28.83;9.00;;;6.80;85.10;;;;;;5015081;28;20030;-54
2021/01/06 02:35:20;;;;;;;22.55;8.65;;;6.90;85.10;;;;;;5013252;28;20030;-54
2021/01/06 02:37:47;;;;;;;25.75;8.60;;;6.90;85.20;;;;;;5019521;28;20026;-54
2021/01/06 02:40:14;;;;;;;27.98;9.32;;;6.90;85.10;;;;;;5026885;28;20040;-54
2021/01/06 02:42:40;;;;;;;25.65;9.63;;;6.90;85.20;;;;;;5013997;28;20473;-54
2021/01/06 02:45:12;;;;;;;27.52;8.43;;;6.90;85.10;;;;;;5015669;28;20038;-54
2021/01/06 02:47:38;;;;;;;23.85;9.77;;;6.90;85.10;;;;;;5024446;28;20521;-54
2021/01/06 02:50:07;;;;;;;22.63;8.85;;;6.90;85.10;;;;;;5014324;28;20030;-54
2021/01/06 02:52:46;;;;;;;26.20;8.65;;;6.90;85.20;;;;;;5012744;28;20105;-54
2021/01/06 02:55:14;;;;;;;22.02;8.07;;;6.80;85.10;;;;;;5014334;28;20029;-54
2021/01/06 02:57:41;;;;;;;27.77;8.88;;;6.90;85.20;;;;;;5025451;28;20451;-54
2021/01/06 03:00:07;;;;;;;22.17;8.27;;;6.90;85.10;;;;;;5014034;28;20153;-54
2021/01/06 03:02:33;;;;;;;19.83;8.80;;;6.90;85.20;;;;;;5020143;28;20109;-54
2021/01/06 03:05:06;;;;;;;21.90;8.38;;;6.90;85.20;;;;;;5014053;28;20038;-54
2021/01/06 03:07:33;;;;;;;22.48;7.45;;;6.80;85.10;;;;;;5009695;28;20029;-54
2021/01/06 03:09:59;;;;;;;24.02;9.02;;;6.80;85.10;;;;;;5018569;28;20025;-54
2021/01/06 03:12:34;;;;;;;31.30;10.13;;;6.80;85.10;;;;;;5016229;28;20037;-54
2021/01/06 03:15:01;;;;;;;27.25;9.57;;;6.90;85.10;;;;;;5013909;28;20021;-54
2021/01/06 03:17:30;;;;;;;40.13;10.13;;;6.90;85.10;;;;;;5011706;28;20459;-54
2021/01/06 03:20:01;;;;;;;28.65;9.20;;;6.80;85.10;;;;;;5013386;28;20045;-54
2021/01/06 03:22:28;;;;;;;25.95;9.13;;;6.80;85.10;;;;;;5021593;28;20026;-54
2021/01/06 03:25:00;;;;;;;28.98;9.15;;;6.90;85.20;;;;;;5013917;28;20100;-54
2021/01/06 03:27:27;;;;;;;21.33;8.52;;;6.80;85.10;;;;;;5012721;28;20079;-54
2021/01/06 03:29:54;;;;;;;29.05;9.60;;;6.80;85.80;;;;;;5023335;28;20477;-54
2021/01/06 03:32:27;;;;;;;21.10;7.88;;;6.80;85.10;;;;;;5012378;28;20105;-54
2021/01/06 03:35:02;;;;;;;26.42;8.98;;;6.90;85.20;;;;;;5013848;28;20038;-54
2021/01/06 03:37:42;;;;;;;24.90;9.20;;;6.80;85.10;;;;;;5010451;28;20344;-54
2021/01/06 03:40:35;;;;;;;23.50;9.38;;;6.90;85.20;;;;;;5014403;28;20073;-54
2021/01/06 03:43:02;;;;;;;27.17;11.23;;;6.80;85.20;;;;;;5015353;28;20025;-54
2021/01/06 03:45:30;;;;;;;22.42;8.90;;;6.80;85.10;;;;;;5012598;28;20474;-54
2021/01/06 03:48:40;;;;;;;26.98;9.27;;;6.80;85.10;;;;;;5013185;28;20363;-54
2021/01/06 03:51:36;;;;;;;21.10;8.98;;;6.90;85.20;;;;;;5026092;28;20455;-54
2021/01/06 03:54:36;;;;;;;24.70;9.18;;;6.90;85.90;;;;;;5022859;28;20025;-54
2021/01/06 03:57:04;;;;;;;24.55;8.50;;;6.90;85.20;;;;;;5026536;28;20034;-54
2021/01/06 03:59:34;;;;;;;23.10;8.52;;;6.90;85.20;;;;;;5019048;28;20042;-54
2021/01/06 04:02:22;;;;;;;22.92;9.35;;;6.90;85.20;;;;;;5022531;28;20064;-54
2021/01/06 04:05:06;;;;;;;25.67;9.55;;;6.90;85.20;;;;;;5017635;28;20049;-54
2021/01/06 04:07:45;;;;;;;27.67;9.73;;;6.90;85.20;;;;;;5025304;28;20030;-54
2021/01/06 04:10:14;;;;;;;20.77;8.52;;;6.90;85.20;;;;;;5022300;28;20017;-54
2021/01/06 04:12:41;;;;;;;26.75;9.52;;;6.90;85.20;;;;;;5025845;28;20030;-54
2021/01/06 04:15:09;;;;;;;20.90;8.45;;;6.90;85.30;;;;;;5030104;28;20367;-54
2021/01/06 04:17:38;;;;;;;32.55;9.90;;;6.90;85.30;;;;;;5036972;28;20033;-54
2021/01/06 04:20:19;;;;;;;19.30;8.18;;;6.80;85.20;;;;;;5022924;28;20105;-54
2021/01/06 04:22:46;;;;;;;22.95;8.77;;;6.90;85.30;;;;;;5015609;28;20018;-54
2021/01/06 04:25:12;;;;;;;26.85;9.40;;;6.90;85.30;;;;;;5017908;28;20038;-54
2021/01/06 04:27:39;;;;;;;21.10;8.18;;;6.80;85.20;;;;;;5033949;28;20036;-54
2021/01/06 04:30:27;;;;;;;26.63;8.63;;;6.80;85.20;;;;;;5017122;28;20572;-54
2021/01/06 04:32:53;;;;;;;22.60;7.60;;;6.90;85.30;;;;;;5014900;28;20029;-54
2021/01/06 04:35:20;;;;;;;19.00;7.78;;;6.90;85.30;;;;;;5016560;28;20117;-54
2021/01/06 04:37:46;;;;;;;25.38;9.27;;;6.90;85.30;;;;;;5023739;28;20029;-54
2021/01/06 04:40:15;;;;;;;20.80;8.50;;;6.90;85.30;;;;;;5027159;28;20026;-54
2021/01/06 04:42:43;;;;;;;26.83;9.25;;;6.80;85.30;;;;;;5029617;28;20068;-54
2021/01/06 04:45:29;;;;;;;24.25;9.05;;;6.90;85.40;;;;;;5035595;28;20041;-54
2021/01/06 04:48:18;;;;;;;29.85;9.55;;;6.80;85.30;;;;;;5036451;28;20036;-54
2021/01/06 04:51:11;;;;;;;27.73;9.93;;;6.90;85.40;;;;;;5025270;28;20063;-54
2021/01/06 04:53:55;;;;;;;35.67;11.50;;;6.90;85.40;;;;;;5015756;28;20013;-54
2021/01/06 04:56:38;;;;;;;29.15;9.55;;;6.80;85.30;;;;;;5015633;28;20026;-54
2021/01/06 04:59:22;;;;;;;28.13;9.00;;;6.90;85.30;;;;;;5016304;28;20463;-54
2021/01/06 05:01:51;;;;;;;27.13;9.57;;;6.80;85.20;;;;;;5023138;28;20038;-54
2021/01/06 05:04:35;;;;;;;25.67;9.70;;;6.90;85.20;;;;;;5016052;28;20469;-54
2021/01/06 05:07:09;;;;;;;38.65;12.00;;;6.90;85.10;;;;;;5014423;28;20029;-54
2021/01/06 05:09:44;;;;;;;26.33;8.65;;;6.90;85.10;;;;;;5016596;28;20026;-54
2021/01/06 05:12:21;;;;;;;22.17;8.45;;;6.90;85.10;;;;;;5024144;28;20522;-54
2021/01/06 05:15:12;;;;;;;24.17;8.65;;;6.90;85.10;;;;;;5019684;28;20458;-54
2021/01/06 05:17:39;;;;;;;;;;;6.90;85.10;;;;;;5019017;28;20057;-54
2021/01/06 05:20:07;;;;;;;27.85;8.60;;;6.90;85.00;;;;;;5015886;28;19953;-54
2021/01/06 05:22:32;;;;;;;20.80;8.48;;;6.90;85.10;;;;;;5021589;28;20109;-54
2021/01/06 05:24:58;;;;;;;27.88;9.10;;;6.90;85.00;;;;;;5015912;28;20117;-54
2021/01/06 05:27:26;;;;;;;26.65;10.75;;;6.90;85.00;;;;;;5015451;28;20022;-54
2021/01/06 05:30:04;;;;;;;30.95;9.85;;;7.00;85.00;;;;;;5015975;28;20036;-54
2021/01/06 05:32:31;;;;;;;26.48;9.48;;;7.00;85.00;;;;;;5015589;28;20026;-54
2021/01/06 05:35:24;;;;;;;26.63;9.80;;;7.00;85.00;;;;;;5014831;28;20084;-54
2021/01/06 05:37:59;;;;;;;29.35;8.88;;;7.00;85.00;;;;;;5014553;28;20048;-54
2021/01/06 05:40:27;;;;;;;35.85;10.27;;;7.00;85.00;;;;;;5015583;28;20076;-54
2021/01/06 05:42:56;;;;;;;28.45;8.73;;;6.90;85.00;;;;;;5016402;28;20101;-55
2021/01/06 05:45:28;;;;;;;24.02;8.80;;;7.00;85.00;;;;;;5028198;28;20116;-54
2021/01/06 05:48:01;;;;;;;25.10;8.43;;;6.90;85.00;;;;;;5017324;28;20072;-54
2021/01/06 05:50:38;;;;;;;28.65;8.32;;;7.00;85.10;;;;;;5015508;28;20061;-54
2021/01/06 05:53:19;;;;;;;28.02;9.68;;;6.90;85.00;;;;;;5021513;28;20513;-54
2021/01/06 05:55:48;;;;;;;24.13;8.93;;;7.00;85.00;;;;;;5018049;28;20026;-54
2021/01/06 05:58:27;;;;;;;32.53;11.48;;;7.00;85.00;;;;;;5015219;28;20033;-54
2021/01/06 06:00:59;;;;;;;26.05;9.30;;;7.00;85.10;;;;;;5020577;28;20332;-54
2021/01/06 06:03:33;;;;;;;29.13;10.50;;;7.00;85.00;;;;;;5034946;28;20359;-54
2021/01/06 06:06:43;;;;;;;29.80;10.45;;;7.00;85.00;;;;;;5033969;28;20025;-54
2021/01/06 06:09:34;;;;;;;22.55;9.13;;;7.00;85.00;;;;;;5034903;28;20017;-54
2021/01/06 06:12:26;;;;;;;24.92;9.10;;;7.00;85.00;;;;;;5022489;28;20048;-54
2021/01/06 06:15:10;;;;;;;33.80;9.48;;;6.90;85.00;;;;;;5022993;28;20013;-54
2021/01/06 06:17:36;;;;;;;21.80;8.20;;;7.00;85.10;;;;;;5034450;28;20450;-54
2021/01/06 06:20:16;;;;;;;20.65;8.88;;;7.00;85.00;;;;;;5034288;28;20045;-54
2021/01/06 06:22:47;;;;;;;31.52;11.00;;;7.00;85.00;;;;;;5028735;28;20029;-54
2021/01/06 06:25:22;;;;;;;26.35;8.50;;;7.00;85.00;;;;;;5014545;28;20045;-54
2021/01/06 06:28:07;;;;;;;23.33;8.18;;;7.00;85.00;;;;;;5014747;28;20375;-54
2021/01/06 06:30:55;;;;;;;20.08;7.90;;;7.00;85.00;;;;;;5013932;28;20109;-54
2021/01/06 06:33:32;;;;;;;25.88;8.82;;;7.00;85.00;;;;;;5014272;28;20022;-54
2021/01/06 06:36:02;;;;;;;19.90;8.52;;;7.00;85.00;;;;;;5016249;28;20022;-54
2021/01/06 06:38:54;;;;;;;22.70;9.02;;;7.00;85.00;;;;;;5034401;28;20455;-54
2021/01/06 06:41:22;;;;;;;30.40;8.65;;;7.00;85.00;;;;;;5021395;28;20037;-54
2021/01/06 06:44:20;;;;;;;21.88;8.13;;;7.00;85.00;;;;;;5014209;28;20075;-54
2021/01/06 06:46:46;;;;;;;23.58;9.27;;;7.00;85.00;;;;;;5014381;28;20499;-54
2021/01/06 06:49:11;;;;;;;25.42;9.32;;;7.00;85.10;;;;;;5014267;28;20068;-54
2021/01/06 06:51:53;;;;;;;22.40;8.02;;;7.00;85.00;;;;;;5031580;28;20413;-54
2021/01/06 06:54:33;;;;;;;17.77;7.43;;;7.00;85.00;;;;;;5033792;28;20033;-54
2021/01/06 06:57:12;;;;;;;23.63;8.40;;;7.00;85.00;;;;;;5034053;28;20022;-54
2021/01/06 07:00:20;;;;;;;17.50;7.28;;;7.00;85.10;;;;;;5033833;28;20049;-54
2021/01/06 07:02:53;;;;;;;22.83;7.68;;;7.00;85.10;;;;;;5033557;28;20017;-54
2021/01/06 07:05:56;;;;;;;26.52;8.70;;;7.00;85.10;;;;;;5020413;28;20037;-54
2021/01/06 07:08:24;;;;;;;26.98;9.02;;;7.00;85.10;;;;;;5024582;28;20079;-54
2021/01/06 07:11:26;;;;;;;24.52;7.80;;;7.00;85.10;;;;;;5022981;28;20473;-54
2021/01/06 07:14:36;;;;;;;23.23;8.60;;;7.00;85.10;;;;;;5024630;28;20033;-54
2021/01/06 07:17:14;;;;;;;19.40;7.57;;;7.00;85.10;;;;;;5022701;28;20041;-54
2021/01/06 07:19:56;;;;;;;23.45;7.80;;;7.00;85.10;;;;;;5018725;28;20377;-54
2021/01/06 07:22:39;;;;;;;20.08;8.40;;;7.00;85.10;;;;;;5033441;28;20026;-54
2021/01/06 07:25:17;;;;;;;22.42;7.72;;;7.00;85.10;;;;;;5029008;28;20355;-54
2021/01/06 07:27:49;;;;;;;20.98;8.10;;;7.00;85.10;;;;;;5013885;28;20053;-54
2021/01/06 07:30:38;;;;;;;18.45;7.15;;;7.00;85.10;;;;;;5013875;28;20459;-54
2021/01/06 07:33:19;;;;;;;23.30;7.87;;;7.00;85.10;;;;;;5014116;28;20037;-54
2021/01/06 07:35:45;;;;;;;27.88;8.07;;;7.10;85.90;;;;;;5024856;28;20418;-54
2021/01/06 07:38:11;;;;;;;27.70;10.85;;;7.10;85.10;;;;;;5022851;28;20407;-54
2021/01/06 07:40:39;;;;;;;25.73;8.00;;;7.10;85.20;;;;;;5018640;28;20096;-54
2021/01/06 07:43:08;;;;;;;19.40;7.47;;;7.10;85.20;;;;;;5013194;28;20028;-54
2021/01/06 07:45:49;;;;;;;19.65;7.70;;;7.10;85.20;;;;;;5024413;28;20033;-54
2021/01/06 07:48:17;;;;;;;14.57;7.38;;;7.00;85.10;;;;;;5025140;28;20030;-54
2021/01/06 07:51:01;;;;;;;23.52;8.63;;;7.10;85.20;;;;;;5022425;28;20041;-54
2021/01/06 07:53:35;;;;;;;14.75;6.93;;;7.00;85.20;;;;;;5023744;28;20467;-54
2021/01/06 07:56:13;;;;;;;19.02;7.22;;;7.10;85.20;;;;;;5028890;28;20403;-54
2021/01/06 07:58:42;;;;;;;13.38;6.53;;;7.10;85.20;;;;;;5032620;28;20029;-54
2021/01/06 08:01:20;;;;;;;15.05;5.82;;;7.00;85.10;;;;;;5033091;28;20072;-54
2021/01/06 08:04:00;;;;;;;22.50;6.38;;;7.10;85.20;;;;;;5017454;28;20030;-54
2021/01/06 08:06:49;;;;;;;21.50;7.07;;;7.10;85.20;;;;;;5013398;28;20026;-53
2021/01/06 08:09:34;;;;;;;16.38;7.07;;;7.10;85.20;;;;;;5013668;28;20095;-54
2021/01/06 08:12:10;;;;;;;14.52;6.40;;;7.10;85.20;;;;;;5013394;28;20026;-54
2021/01/06 08:14:36;;;;;;;15.95;5.82;;;7.10;85.20;;;;;;5013266;28;20034;-54
2021/01/06 08:17:24;;;;;;;19.40;6.60;;;7.10;85.20;;;;;;5013242;28;20049;-54
2021/01/06 08:20:02;;;;;;;20.65;6.32;;;7.10;85.30;;;;;;5013358;28;20030;-55
2021/01/06 08:22:38;;;;;;;19.10;5.78;;;7.10;85.20;;;;;;5013022;28;20451;-52
2021/01/06 08:25:03;;;;;;;20.20;6.35;;;7.10;85.40;;;;;;5013047;28;20456;-54
2021/01/06 08:27:37;;;;;;;10.80;5.07;;;7.10;85.40;;;;;;5031332;28;20036;-54
2021/01/06 08:30:25;;;;;;;11.88;5.95;;;7.00;85.30;;;;;;5032616;28;20022;-55
2021/01/06 08:33:20;;;;;;;15.40;5.60;;;7.10;85.00;;;;;;5030087;28;20105;-54
2021/01/06 08:35:50;;;;;;;13.85;5.18;;;7.10;85.70;;;;;;5035638;28;20474;-54
2021/01/06 08:38:31;;;;;;;11.48;5.50;;;7.10;84.80;;;;;;5027435;28;20048;-54
2021/01/06 08:41:15;;;;;;;14.20;5.78;;;7.10;84.70;;;;;;5032178;28;20029;-54
2021/01/06 08:43:41;;;;;;;15.25;6.75;;;7.10;84.70;;;;;;5032864;28;20045;-54
2021/01/06 08:46:32;;;;;;;21.52;7.28;;;7.10;84.70;;;;;;5032675;28;20399;-54
2021/01/06 08:49:24;;;;;;;18.42;7.40;;;7.10;84.70;;;;;;5032232;28;20318;-54
2021/01/06 08:51:53;;;;;;;22.63;7.47;;;7.10;84.60;;;;;;5013650;28;20036;-54
2021/01/06 08:54:32;;;;;;;24.67;9.25;;;7.10;84.60;;;;;;5015638;28;20414;-54
2021/01/06 08:57:21;;;;;;;21.97;8.30;;;7.10;84.60;;;;;;5016320;28;20092;-54
2021/01/06 08:59:46;;;;;;;24.60;9.85;;;7.10;84.50;;;;;;5016785;28;20034;-54
2021/01/06 09:02:20;;;;;;;23.33;8.18;;;7.10;84.50;;;;;;5035962;28;20029;-54
2021/01/06 09:04:46;;;;;;;26.50;10.15;;;7.10;84.60;;;;;;5035807;28;20042;-54
2021/01/06 09:07:15;;;;;;;24.80;8.93;;;7.10;84.50;;;;;;5032394;28;20291;-53
2021/01/06 09:09:44;;;;;;;28.98;8.82;;;7.10;84.70;;;;;;5034336;28;20061;-53
2021/01/06 09:12:25;;;;;;;22.23;8.38;;;7.10;84.80;;;;;;5026446;28;20509;-53
2021/01/06 09:14:55;;;;;;;23.05;8.23;;;7.10;84.70;;;;;;5035919;28;20029;-56
2021/01/06 09:17:34;;;;;;;21.73;8.48;;;7.10;84.80;;;;;;5035448;28;20116;-54
2021/01/06 09:20:10;;;;;;;25.33;8.98;;;7.10;84.50;;;;;;5035263;28;20091;-54
2021/01/06 09:22:36;;;;;;;24.80;9.05;;;7.10;84.30;;;;;;5029036;28;20029;-53
2021/01/06 09:25:03;;;;;;;25.27;9.18;;;7.10;84.10;;;;;;5016314;28;20034;-54
2021/01/06 09:27:42;;;;;;;20.98;8.27;;;7.10;84.00;;;;;;5016331;28;20080;-54
2021/01/06 09:30:28;;;;;;;19.05;7.88;;;7.10;83.90;;;;;;5016142;28;20040;-54
2021/01/06 09:32:56;;;;;;;22.88;7.95;;;7.10;83.90;;;;;;5015607;28;20038;-54
2021/01/06 09:35:28;;;;;;;17.60;7.30;;;7.10;83.80;;;;;;5029978;28;20113;-54
2021/01/06 09:38:06;;;;;;;22.88;9.77;;;7.10;83.80;;;;;;5035110;28;20099;-54
2021/01/06 09:40:35;;;;;;;22.08;8.63;;;7.10;83.80;;;;;;5035105;28;20030;-54
2021/01/06 09:43:19;;;;;;;24.27;8.18;;;7.10;83.80;;;;;;5035141;28;20120;-53
2021/01/06 09:45:45;;;;;;;24.05;9.63;;;7.10;83.80;;;;;;5035451;28;20057;-54
2021/01/06 09:48:13;;;;;;;27.92;10.13;;;7.10;83.70;;;;;;5027496;28;20418;-54
2021/01/06 09:50:45;;;;;;;22.88;8.90;;;7.10;83.80;;;;;;5015355;28;20040;-53
2021/01/06 09:53:15;;;;;;;23.42;9.68;;;7.20;83.80;;;;;;5031274;28;20083;-54
2021/01/06 09:55:45;;;;;;;21.38;8.25;;;7.20;83.80;;;;;;5035117;28;20028;-54
2021/01/06 09:58:13;;;;;;;25.87;9.50;;;7.20;83.80;;;;;;5035331;28;20094;-54
2021/01/06 10:01:04;;;;;;;22.75;8.07;;;7.20;83.80;;;;;;5035055;28;20029;-54
2021/01/06 10:03:33;;;;;;;23.50;9.18;;;7.20;83.80;;;;;;5014661;28;20157;-54
2021/01/06 10:06:36;;;;;;;17.38;6.57;;;7.20;83.80;;;;;;5023334;28;20033;-54
2021/01/06 10:09:13;;;;;;;26.35;10.77;;;7.20;83.80;;;;;;5015125;28;20022;-54
2021/01/06 10:11:48;;;;;;;24.90;7.28;;;7.20;83.80;;;;;;5032349;28;20025;-54
2021/01/06 10:14:21;;;;;;;28.17;9.38;;;7.20;83.90;;;;;;5034258;28;20075;-54
2021/01/06 10:16:55;;;;;;;28.60;10.48;;;7.20;83.90;;;;;;5035081;28;20197;-54
2021/01/06 10:19:24;;;;;;;23.08;8.90;;;7.20;83.80;;;;;;5034488;28;20028;-54
2021/01/06 10:21:58;;;;;;;27.38;8.65;;;7.20;83.80;;;;;;5034322;28;20021;-54
2021/01/06 10:24:48;;;;;;;22.33;8.13;;;7.20;83.90;;;;;;5034341;28;20411;-54
2021/01/06 10:27:38;;;;;;;27.92;9.38;;;7.20;83.90;;;;;;5029793;28;20028;-54
2021/01/06 10:30:18;;;;;;;21.50;9.00;;;7.20;83.90;;;;;;5016259;28;20040;-54
2021/01/06 10:33:09;;;;;;;25.10;8.93;;;7.20;83.90;;;;;;5024475;28;20025;-54
2021/01/06 10:35:37;;;;;;;25.17;8.73;;;7.20;83.80;;;;;;5034463;28;20329;-54
2021/01/06 10:38:23;;;;;;;28.63;8.75;;;7.20;83.80;;;;;;5034321;28;20037;-54
2021/01/06 10:40:51;;;;;;;31.80;9.85;;;7.30;83.90;;;;;;5034151;28;20074;-54
2021/01/06 10:43:32;;;;;;;31.00;11.07;;;7.30;83.90;;;;;;5019538;28;20026;-54
2021/01/06 10:45:57;;;;;;;30.35;10.80;;;7.30;83.90;;;;;;5014526;28;20045;-53
2021/01/06 10:48:55;;;;;;;25.73;9.65;;;7.30;83.90;;;;;;5014288;28;20030;-54
2021/01/06 10:51:56;;;;;;;23.60;10.35;;;7.30;83.90;;;;;;5012313;28;20125;-54
2021/01/06 10:54:29;;;;;;;29.67;10.00;;;7.30;83.90;;;;;;5014355;28;20022;-54
2021/01/06 10:56:56;;;;;;;18.48;7.47;;;7.30;83.90;;;;;;5022246;28;20084;-54
2021/01/06 10:59:22;;;;;;;20.75;8.88;;;7.30;83.90;;;;;;5014246;28;20448;-54
2021/01/06 11:02:06;;;;;;;28.63;9.90;;;7.30;83.90;;;;;;5013064;28;20037;-54
2021/01/06 11:04:58;;;;;;;26.85;10.60;;;7.30;83.90;;;;;;5014476;28;20030;-54
2021/01/06 11:07:59;;;;;;;26.35;8.75;;;7.30;83.90;;;;;;5013193;28;20056;-54
2021/01/06 11:10:33;;;;;;;;;;;7.30;83.90;;;;;;5022153;28;20021;-53
2021/01/06 11:13:21;;;;;;;29.67;8.30;;;7.30;83.90;;;;;;5033367;28;19909;-54
2021/01/06 11:16:11;;;;;;;26.20;9.95;;;7.30;83.90;;;;;;5033254;28;20071;-54
2021/01/06 11:18:42;;;;;;;23.25;9.65;;;7.30;83.90;;;;;;5033577;28;20451;-54
2021/01/06 11:21:13;;;;;;;;;;;7.30;83.90;;;;;;5034451;28;20096;-54
2021/01/06 11:23:59;;;;;;;13.25;4.63;;;7.30;83.90;;;;;;5032510;28;19913;-54
2021/01/06 11:26:31;;;;;;;17.92;7.55;;;7.30;83.90;;;;;;5033155;28;20535;-54
2021/01/06 11:29:02;;;;;;;19.10;7.03;;;7.30;83.90;;;;;;5033650;28;20122;-54
2021/01/06 11:31:33;;;;;;;23.83;9.63;;;7.40;83.90;;;;;;5033081;28;20052;-54
2021/01/06 11:34:19;;;;;;;20.33;8.20;;;7.40;83.90;;;;;;5033411;28;20037;-54
2021/01/06 11:36:56;;;;;;;28.13;10.32;;;7.40;83.90;;;;;;5036105;28;20034;-54
2021/01/06 11:39:37;;;;;;;21.85;8.77;;;7.40;83.90;;;;;;5033404;28;20119;-54
2021/01/06 11:42:17;;;;;;;22.70;8.27;;;7.40;84.00;;;;;;5032898;28;20466;-54
2021/01/06 11:45:09;;;;;;;27.70;10.52;;;7.40;83.90;;;;;;5033266;28;20459;-54
2021/01/06 11:48:05;;;;;;;21.80;7.95;;;7.40;84.00;;;;;;5033295;28;20080;-54
2021/01/06 11:50:44;;;;;;;32.88;9.68;;;7.40;84.00;;;;;;5031436;28;20048;-53
2021/01/06 11:53:29;;;;;;;18.42;8.82;;;7.40;83.90;;;;;;5019705;28;20087;-54
2021/01/06 11:56:20;;;;;;;31.98;11.52;;;7.40;84.70;;;;;;5023721;28;20040;-54
2021/01/06 11:59:13;;;;;;;26.40;10.13;;;7.40;83.90;;;;;;5028344;28;20026;-54
2021/01/06 12:01:45;;;;;;;30.30;11.38;;;7.40;84.00;;;;;;5033066;28;20589;-54
2021/01/06 12:04:34;;;;;;;20.95;8.98;;;7.40;83.90;;;;;;5033132;28;20038;-54
2021/01/06 12:07:24;;;;;;;26.50;9.80;;;7.40;84.00;;;;;;5032841;28;20025;-53
2021/01/06 12:09:55;;;;;;;31.83;11.05;;;7.40;83.90;;;;;;5030136;28;20029;-54
2021/01/06 12:12:44;;;;;;;24.45;9.88;;;7.40;83.90;;;;;;5013090;28;20049;-54
2021/01/06 12:15:33;;;;;;;23.45;9.95;;;7.40;83.90;;;;;;5013102;28;20022;-54
2021/01/06 12:18:03;;;;;;;33.40;10.85;;;7.40;83.90;;;;;;5019671;28;20530;-54
2021/01/06 12:20:35;;;;;;;22.08;9.48;;;7.40;83.90;;;;;;5028951;28;20041;-54
2021/01/06 12:23:16;;;;;;;22.75;8.40;;;7.50;84.00;;;;;;5015269;28;20081;-54
2021/01/06 12:25:44;;;;;;;25.75;9.80;;;7.50;83.90;;;;;;5012880;28;20368;-54
2021/01/06 12:28:33;;;;;;;20.60;8.25;;;7.50;83.90;;;;;;5014376;28;20018;-54
2021/01/06 12:31:16;;;;;;;23.58;8.57;;;7.50;84.00;;;;;;5017052;28;20025;-54
2021/01/06 12:33:48;;;;;;;24.02;9.02;;;7.50;84.00;;;;;;5016913;28;20076;-53
2021/01/06 12:36:20;;;;;;;28.15;9.48;;;7.50;84.00;;;;;;5016757;28;20038;-54
2021/01/06 12:38:47;;;;;;;21.83;8.20;;;7.50;84.00;;;;;;5016793;28;20033;-54
2021/01/06 12:41:24;;;;;;;21.70;9.05;;;7.50;84.00;;;;;;5016490;28;20112;-54
2021/01/06 12:43:59;;;;;;;25.75;8.73;;;7.50;84.00;;;;;;5016840;28;20276;-54
2021/01/06 12:46:28;;;;;;;30.80;10.68;;;7.50;84.10;;;;;;5016482;28;20026;-54
2021/01/06 12:49:13;;;;;;;23.23;9.80;;;7.50;84.10;;;;;;5016531;28;20447;-53
2021/01/06 12:52:14;;;;;;;26.25;10.40;;;7.50;84.10;;;;;;5016156;28;20041;-54
2021/01/06 12:54:48;;;;;;;27.95;10.57;;;7.50;84.10;;;;;;5024075;28;20030;-53
2021/01/06 12:57:30;;;;;;;31.25;10.80;;;7.50;84.10;;;;;;5016446;28;20037;-54
2021/01/06 13:00:05;;;;;;;18.33;8.73;;;7.50;84.10;;;;;;5016764;28;20033;-54
2021/01/06 13:02:38;;;;;;;21.98;8.35;;;7.50;84.20;;;;;;5016020;28;20034;-53
2021/01/06 13:05:36;;;;;;;16.63;7.88;;;7.50;84.20;;;;;;5016203;28;20463;-54
2021/01/06 13:08:03;;;;;;;26.58;8.50;;;7.50;84.20;;;;;;5036455;28;20107;-54
2021/01/06 13:10:37;;;;;;;23.60;8.73;;;7.50;84.20;;;;;;5024561;28;20048;-54
2021/01/06 13:13:27;;;;;;;22.73;8.40;;;7.50;84.30;;;;;;5035717;28;20025;-54
2021/01/06 13:16:02;;;;;;;20.60;8.15;;;7.50;84.20;;;;;;5036304;28;20026;-53
2021/01/06 13:18:45;;;;;;;20.38;6.82;;;7.50;84.30;;;;;;5035743;28;20052;-54
2021/01/06 13:21:22;;;;;;;18.40;6.97;;;7.50;84.30;;;;;;5035739;28;20030;-54
2021/01/06 13:23:54;;;;;;;18.92;7.07;;;7.50;84.30;;;;;;5035570;28;20037;-54
2021/01/06 13:26:51;;;;;;;20.20;8.05;;;7.50;84.40;;;;;;5035756;28;20116;-54
2021/01/06 13:29:17;;;;;;;18.98;7.57;;;7.50;84.40;;;;;;5035581;28;20033;-54